Time;durP1;ratioP1;P1;durP2;ratioP2;P2;SDS_P1;SDS_P2;PMS_P1;PMS_P2;Temp;Humidity;BMP_temperature;BMP_pressure;BME280_temperature;BME280_humidity;BME280_pressure;Samples;Min_cycle;Max_cycle;Signal;HPM_P1;HPM_P2
2023/03/14 00:01:21;;;;;;;2.75;1.17;;;;;;;;;;4352704;28;10000320;-72
2023/03/14 00:03:50;;;;;;;3.00;1.00;;;;;;;;;;5055696;28;20152;-72
2023/03/14 00:06:22;;;;;;;2.20;1.10;;;;;;;;;;5042898;28;20056;-72
2023/03/14 00:08:53;;;;;;;2.75;1.23;;;;;;;;;;5042545;28;20043;-72
2023/03/14 00:11:24;;;;;;;1.90;0.90;;;;;;;;;;5042064;28;20020;-72
2023/03/14 00:13:54;;;;;;;2.35;1.13;;;;;;;;;;5053801;28;20111;-72
2023/03/14 00:16:25;;;;;;;2.92;0.80;;;;;;;;;;5040713;28;20586;-72
2023/03/14 00:18:51;;;;;;;3.88;1.00;;;;;;;;;;5035316;28;20060;-72
2023/03/14 00:21:23;;;;;;;3.55;1.00;;;;;;;;;;5037174;28;20033;-72
2023/03/14 00:23:49;;;;;;;3.28;1.00;;;;;;;;;;5039393;28;20132;-72
2023/03/14 00:26:17;;;;;;;1.58;0.90;;;;;;;;;;5032545;28;20033;-72
2023/03/14 00:28:45;;;;;;;2.05;1.08;;;;;;;;;;5039395;28;20025;-72
2023/03/14 00:31:12;;;;;;;4.00;0.93;;;;;;;;;;5035895;28;20489;-72
2023/03/14 00:33:39;;;;;;;2.00;1.00;;;;;;;;;;5034079;28;20504;-72
2023/03/14 00:36:08;;;;;;;2.15;0.77;;;;;;;;;;5035193;28;20465;-71
2023/03/14 00:38:35;;;;;;;1.30;0.73;;;;;;;;;;5046696;28;20461;-72
2023/03/14 00:41:06;;;;;;;1.67;0.70;;;;;;;;;;5044877;28;20120;-72
2023/03/14 00:43:32;;;;;;;1.35;0.90;;;;;;;;;;5054839;28;20035;-72
2023/03/14 00:45:59;;;;;;;2.42;0.93;;;;;;;;;;5054679;28;20029;-72
2023/03/14 00:48:26;;;;;;;2.35;0.90;;;;;;;;;;5051042;28;20068;-72
2023/03/14 00:50:55;;;;;;;2.00;0.90;;;;;;;;;;5048466;28;20060;-72
2023/03/14 00:53:24;;;;;;;2.03;0.95;;;;;;;;;;5058475;28;20040;-72
2023/03/14 00:55:50;;;;;;;3.20;1.05;;;;;;;;;;5042869;28;20400;-72
2023/03/14 00:58:17;;;;;;;2.47;1.20;;;;;;;;;;5062936;28;20473;-72
2023/03/14 01:00:46;;;;;;;3.78;1.60;;;;;;;;;;5052228;28;20144;-72
2023/03/14 01:03:16;;;;;;;1.48;1.20;;;;;;;;;;5043614;28;20025;-72
2023/03/14 01:05:45;;;;;;;3.97;1.40;;;;;;;;;;5049925;28;20108;-72
2023/03/14 01:08:11;;;;;;;2.30;1.80;;;;;;;;;;5052825;28;20420;-72
2023/03/14 01:10:44;;;;;;;2.25;1.50;;;;;;;;;;5063064;28;20028;-72
2023/03/14 01:13:10;;;;;;;8.75;1.80;;;;;;;;;;5039723;28;20584;-72
2023/03/14 01:15:42;;;;;;;5.63;2.00;;;;;;;;;;5038191;28;20425;-72
2023/03/14 01:18:16;;;;;;;3.67;2.00;;;;;;;;;;5041567;28;20029;-71
2023/03/14 01:20:47;;;;;;;3.67;2.22;;;;;;;;;;5050550;28;20573;-72
2023/03/14 01:23:13;;;;;;;4.80;2.17;;;;;;;;;;5042021;28;20053;-72
2023/03/14 01:25:43;;;;;;;2.80;1.85;;;;;;;;;;5054653;28;20028;-72
2023/03/14 01:28:17;;;;;;;4.97;2.15;;;;;;;;;;5043082;28;20021;-71
2023/03/14 01:30:43;;;;;;;3.17;2.08;;;;;;;;;;5037170;28;20116;-71
2023/03/14 01:33:12;;;;;;;5.43;2.03;;;;;;;;;;5040927;28;20107;-72
2023/03/14 01:35:39;;;;;;;3.38;1.92;;;;;;;;;;5045811;28;20777;-72
2023/03/14 01:38:06;;;;;;;4.30;2.40;;;;;;;;;;5046619;28;20040;-72
2023/03/14 01:40:32;;;;;;;4.20;2.40;;;;;;;;;;5039813;28;20061;-73
2023/03/14 01:42:59;;;;;;;3.45;2.15;;;;;;;;;;5041177;28;20531;-72
2023/03/14 01:45:47;;;;;;;5.43;2.50;;;;;;;;;;5035824;28;20018;-73
2023/03/14 01:48:17;;;;;;;5.15;3.00;;;;;;;;;;5039567;28;20021;-72
2023/03/14 01:50:46;;;;;;;3.38;2.30;;;;;;;;;;5042887;28;20032;-72
2023/03/14 01:53:13;;;;;;;4.60;2.80;;;;;;;;;;5045848;28;20473;-73
2023/03/14 01:55:41;;;;;;;7.53;2.70;;;;;;;;;;5047742;28;20029;-73
2023/03/14 01:58:08;;;;;;;4.03;2.58;;;;;;;;;;5036153;28;20078;-72
2023/03/14 02:00:35;;;;;;;4.03;2.72;;;;;;;;;;5038974;28;20110;-72
2023/03/14 02:03:09;;;;;;;5.90;2.65;;;;;;;;;;5043214;28;20028;-73
2023/03/14 02:05:38;;;;;;;4.88;2.83;;;;;;;;;;5044743;28;20021;-72
2023/03/14 02:08:06;;;;;;;6.45;3.10;;;;;;;;;;5044056;28;20366;-72
2023/03/14 02:10:34;;;;;;;5.97;3.13;;;;;;;;;;5041998;28;20038;-72
2023/03/14 02:13:02;;;;;;;4.88;3.20;;;;;;;;;;5037330;28;20456;-73
2023/03/14 02:15:34;;;;;;;4.88;3.10;;;;;;;;;;5040243;28;20083;-72
2023/03/14 02:18:10;;;;;;;6.93;3.33;;;;;;;;;;5039376;28;20029;-73
2023/03/14 02:20:48;;;;;;;5.45;3.08;;;;;;;;;;5038388;28;20548;-72
2023/03/14 02:23:25;;;;;;;5.28;2.95;;;;;;;;;;5042245;28;20045;-73
2023/03/14 02:26:09;;;;;;;5.10;3.10;;;;;;;;;;5035981;28;20029;-72
2023/03/14 02:28:35;;;;;;;7.90;3.00;;;;;;;;;;5039613;28;20048;-72
2023/03/14 02:31:03;;;;;;;6.95;2.90;;;;;;;;;;5040464;28;20030;-72
2023/03/14 02:33:30;;;;;;;7.40;3.22;;;;;;;;;;5042099;28;20048;-72
2023/03/14 02:36:00;;;;;;;6.88;3.10;;;;;;;;;;5037427;28;20056;-72
2023/03/14 02:38:32;;;;;;;6.47;3.30;;;;;;;;;;5039352;28;20092;-72
2023/03/14 02:41:05;;;;;;;8.02;3.30;;;;;;;;;;5040529;28;20033;-72
2023/03/14 02:43:40;;;;;;;8.05;3.53;;;;;;;;;;5041720;28;20029;-72
2023/03/14 02:46:09;;;;;;;6.05;3.40;;;;;;;;;;5041879;28;21121;-71
2023/03/14 02:48:44;;;;;;;8.35;3.83;;;;;;;;;;5039859;28;20044;-71
2023/03/14 02:51:18;;;;;;;8.55;3.80;;;;;;;;;;5042075;28;20045;-72
2023/03/14 02:53:48;;;;;;;9.30;3.28;;;;;;;;;;5043473;28;20099;-72
2023/03/14 02:56:20;;;;;;;10.88;3.63;;;;;;;;;;5040776;28;20041;-72
2023/03/14 02:58:48;;;;;;;7.50;3.28;;;;;;;;;;5042795;28;20068;-72
2023/03/14 03:01:16;;;;;;;8.38;3.70;;;;;;;;;;5044622;28;20229;-72
2023/03/14 03:03:46;;;;;;;7.75;3.22;;;;;;;;;;5042207;28;20113;-72
2023/03/14 03:06:20;;;;;;;13.20;3.13;;;;;;;;;;5050026;28;20033;-72
2023/03/14 03:08:48;;;;;;;9.43;3.30;;;;;;;;;;5056050;28;20153;-72
2023/03/14 03:11:15;;;;;;;6.85;2.90;;;;;;;;;;5045919;28;20017;-72
2023/03/14 03:13:42;;;;;;;7.30;2.80;;;;;;;;;;5049015;28;20115;-72
2023/03/14 03:16:09;;;;;;;7.20;3.22;;;;;;;;;;5044775;28;20083;-72
2023/03/14 03:18:35;;;;;;;6.22;2.60;;;;;;;;;;5041806;28;20048;-72
2023/03/14 03:21:08;;;;;;;6.22;2.63;;;;;;;;;;5057214;28;20124;-72
2023/03/14 03:23:39;;;;;;;9.43;2.72;;;;;;;;;;5041822;28;20522;-72
2023/03/14 03:26:12;;;;;;;8.82;3.28;;;;;;;;;;5055340;28;20039;-72
2023/03/14 03:28:41;;;;;;;6.15;2.70;;;;;;;;;;5038106;28;20036;-72
2023/03/14 03:31:11;;;;;;;12.30;3.35;;;;;;;;;;5039143;28;20021;-72
2023/03/14 03:33:43;;;;;;;8.10;3.20;;;;;;;;;;5047183;28;20025;-71
2023/03/14 03:36:16;;;;;;;12.02;3.25;;;;;;;;;;5045101;28;20396;-72
2023/03/14 03:38:42;;;;;;;8.40;3.10;;;;;;;;;;5038694;28;20061;-72
2023/03/14 03:41:13;;;;;;;6.30;2.90;;;;;;;;;;5051222;28;20086;-72
2023/03/14 03:43:44;;;;;;;11.98;3.50;;;;;;;;;;5047280;28;20497;-72
2023/03/14 03:46:16;;;;;;;7.97;3.28;;;;;;;;;;5039852;28;20041;-72
2023/03/14 03:48:49;;;;;;;9.40;3.22;;;;;;;;;;5043551;28;20489;-72
2023/03/14 03:51:18;;;;;;;7.72;3.00;;;;;;;;;;5037152;28;20055;-72
2023/03/14 03:53:47;;;;;;;12.77;3.53;;;;;;;;;;5044419;28;20029;-71
2023/03/14 03:56:21;;;;;;;8.63;2.72;;;;;;;;;;5051386;28;20029;-71
2023/03/14 03:58:52;;;;;;;8.32;2.95;;;;;;;;;;5047320;28;20075;-71
2023/03/14 04:01:24;;;;;;;12.32;3.50;;;;;;;;;;5048005;28;20040;-71
2023/03/14 04:03:54;;;;;;;8.82;2.90;;;;;;;;;;5031176;28;20037;-72
2023/03/14 04:06:27;;;;;;;6.80;2.28;;;;;;;;;;5049965;28;20037;-71
2023/03/14 04:08:54;;;;;;;8.38;2.58;;;;;;;;;;5044081;28;20474;-71
2023/03/14 04:11:20;;;;;;;11.38;2.88;;;;;;;;;;5049363;28;20102;-72
2023/03/14 04:13:46;;;;;;;8.52;2.60;;;;;;;;;;5048925;28;20025;-72
2023/03/14 04:16:21;;;;;;;7.63;2.30;;;;;;;;;;5044984;28;20025;-71
2023/03/14 04:18:47;;;;;;;10.13;2.55;;;;;;;;;;5041045;28;20036;-72
2023/03/14 04:21:22;;;;;;;11.05;2.08;;;;;;;;;;5040892;28;20048;-71
2023/03/14 04:23:51;;;;;;;7.68;2.17;;;;;;;;;;5046567;28;20140;-71
2023/03/14 04:26:23;;;;;;;7.85;2.20;;;;;;;;;;5038765;28;20108;-72
2023/03/14 04:28:53;;;;;;;9.10;2.28;;;;;;;;;;5041930;28;20429;-72
2023/03/14 04:31:25;;;;;;;10.23;2.42;;;;;;;;;;5051373;28;20021;-72
2023/03/14 04:33:54;;;;;;;10.35;2.28;;;;;;;;;;5059481;28;20041;-72
2023/03/14 04:36:29;;;;;;;6.40;2.00;;;;;;;;;;5036328;28;20075;-72
2023/03/14 04:39:00;;;;;;;8.38;2.22;;;;;;;;;;5046953;28;20044;-71
2023/03/14 04:41:32;;;;;;;7.63;2.15;;;;;;;;;;5041961;28;20132;-72
2023/03/14 04:44:03;;;;;;;7.35;2.03;;;;;;;;;;5044939;28;20037;-72
2023/03/14 04:46:35;;;;;;;7.88;2.20;;;;;;;;;;5039964;28;20074;-72
2023/03/14 04:49:01;;;;;;;8.43;2.13;;;;;;;;;;5038950;28;20025;-72
2023/03/14 04:51:33;;;;;;;7.72;1.90;;;;;;;;;;5057203;28;20170;-72
2023/03/14 04:54:02;;;;;;;7.40;2.08;;;;;;;;;;5046451;28;20037;-72
2023/03/14 04:56:30;;;;;;;9.27;2.33;;;;;;;;;;5047739;28;20049;-72
2023/03/14 04:58:57;;;;;;;5.78;2.13;;;;;;;;;;5038150;28;20104;-72
2023/03/14 05:01:31;;;;;;;6.57;2.13;;;;;;;;;;5031386;28;20701;-72
2023/03/14 05:04:06;;;;;;;7.43;2.08;;;;;;;;;;5045960;28;20032;-72
2023/03/14 05:06:39;;;;;;;8.48;2.13;;;;;;;;;;5050448;28;20024;-72
2023/03/14 05:09:05;;;;;;;7.97;2.40;;;;;;;;;;5044806;28;20491;-72
2023/03/14 05:11:32;;;;;;;6.13;1.92;;;;;;;;;;5048214;28;20500;-72
2023/03/14 05:13:59;;;;;;;6.93;2.00;;;;;;;;;;5036069;28;20541;-72
2023/03/14 05:16:30;;;;;;;9.15;1.92;;;;;;;;;;5038834;28;20058;-72
2023/03/14 05:18:59;;;;;;;10.13;2.13;;;;;;;;;;5043558;28;20032;-72
2023/03/14 05:21:28;;;;;;;10.75;2.33;;;;;;;;;;5047074;28;20049;-72
2023/03/14 05:23:58;;;;;;;7.78;2.08;;;;;;;;;;5052927;28;20048;-72
2023/03/14 05:26:30;;;;;;;11.50;2.05;;;;;;;;;;5067570;28;20032;-72
2023/03/14 05:28:59;;;;;;;7.97;1.85;;;;;;;;;;5034524;28;20056;-72
2023/03/14 05:31:27;;;;;;;7.43;1.63;;;;;;;;;;5051578;28;20599;-72
2023/03/14 05:33:55;;;;;;;7.85;2.05;;;;;;;;;;5047449;28;20052;-72
2023/03/14 05:36:24;;;;;;;7.00;1.90;;;;;;;;;;5046330;28;20018;-72
2023/03/14 05:38:54;;;;;;;9.75;2.05;;;;;;;;;;5044551;28;20045;-72
2023/03/14 05:41:24;;;;;;;5.38;1.77;;;;;;;;;;5063148;28;20024;-72
2023/03/14 05:43:55;;;;;;;5.38;1.85;;;;;;;;;;5034250;28;20392;-72
2023/03/14 05:46:26;;;;;;;9.70;2.38;;;;;;;;;;5038404;28;20033;-72
2023/03/14 05:48:56;;;;;;;8.55;2.08;;;;;;;;;;5050465;28;20029;-72
2023/03/14 05:51:28;;;;;;;5.97;1.70;;;;;;;;;;5051071;28;20708;-72
2023/03/14 05:53:58;;;;;;;6.05;1.65;;;;;;;;;;5045452;28;20068;-72
2023/03/14 05:56:29;;;;;;;7.00;1.92;;;;;;;;;;5047517;28;20121;-72
2023/03/14 05:58:58;;;;;;;5.10;1.80;;;;;;;;;;5043491;28;20506;-72
2023/03/14 06:01:27;;;;;;;8.00;2.00;;;;;;;;;;5045094;28;20078;-72
2023/03/14 06:03:54;;;;;;;6.38;1.80;;;;;;;;;;5039484;28;20041;-73
2023/03/14 06:06:22;;;;;;;8.48;2.03;;;;;;;;;;5044936;28;20117;-72
2023/03/14 06:08:48;;;;;;;6.35;2.00;;;;;;;;;;5045868;28;20053;-72
2023/03/14 06:11:20;;;;;;;7.60;1.77;;;;;;;;;;5049450;28;20120;-72
2023/03/14 06:13:49;;;;;;;7.55;2.28;;;;;;;;;;5044044;28;20500;-72
2023/03/14 06:16:18;;;;;;;8.30;1.90;;;;;;;;;;5045896;28;20062;-72
2023/03/14 06:18:48;;;;;;;8.27;2.03;;;;;;;;;;5039463;28;20024;-72
2023/03/14 06:21:21;;;;;;;8.13;1.85;;;;;;;;;;5052601;28;20036;-72
2023/03/14 06:23:48;;;;;;;7.18;1.92;;;;;;;;;;5050116;28;20405;-72
2023/03/14 06:26:17;;;;;;;9.70;2.20;;;;;;;;;;5042165;28;20469;-72
2023/03/14 06:28:44;;;;;;;6.68;1.77;;;;;;;;;;5038574;28;20070;-72
2023/03/14 06:31:10;;;;;;;7.10;2.15;;;;;;;;;;5030963;28;20020;-72
2023/03/14 06:33:44;;;;;;;6.90;1.83;;;;;;;;;;5048578;28;20033;-72
2023/03/14 06:36:13;;;;;;;5.07;1.80;;;;;;;;;;5047869;28;20033;-72
2023/03/14 06:38:46;;;;;;;4.85;1.65;;;8.80;99.90;;;;;;5050051;28;20025;-72
2023/03/14 06:41:12;;;;;;;5.80;2.38;;;9.00;99.90;;;;;;5045672;28;20041;-72
2023/03/14 06:43:44;;;;;;;6.57;1.95;;;9.00;99.90;;;;;;5036257;28;20387;-72
2023/03/14 06:46:13;;;;;;;7.45;1.95;;;9.00;99.90;;;;;;5042614;28;20029;-72
2023/03/14 06:48:39;;;;;;;5.18;2.05;;;9.00;99.90;;;;;;5040927;28;20054;-72
2023/03/14 06:51:11;;;;;;;5.03;1.98;;;9.00;99.90;;;;;;5045676;28;20391;-72
2023/03/14 06:53:37;;;;;;;8.27;2.10;;;9.10;99.90;;;;;;5049419;28;20037;-72
2023/03/14 06:56:03;;;;;;;4.60;1.70;;;9.10;99.90;;;;;;5052039;28;20032;-72
2023/03/14 06:58:29;;;;;;;5.18;1.48;;;9.10;99.90;;;;;;5038775;28;20040;-72
2023/03/14 07:00:56;;;;;;;8.13;1.70;;;9.10;99.90;;;;;;5042363;28;20029;-72
2023/03/14 07:03:26;;;;;;;4.38;1.52;;;9.10;99.90;;;;;;5037086;28;20063;-72
2023/03/14 07:05:52;;;;;;;5.50;1.38;;;9.20;99.90;;;;;;5043970;28;20134;-72
2023/03/14 07:08:21;;;;;;;5.90;1.52;;;9.20;99.90;;;;;;5034810;28;20026;-72
2023/03/14 07:10:51;;;;;;;5.78;1.75;;;9.20;99.90;;;;;;5040274;28;20025;-72
2023/03/14 07:13:17;;;;;;;4.80;1.30;;;9.20;99.90;;;;;;5038210;28;20152;-72
2023/03/14 07:15:43;;;;;;;6.55;1.50;;;9.30;99.90;;;;;;5051078;28;20139;-72
2023/03/14 07:18:11;;;;;;;4.63;1.77;;;9.30;99.90;;;;;;5034011;28;20453;-73
2023/03/14 07:20:41;;;;;;;7.18;1.75;;;9.30;99.90;;;;;;5039901;28;20116;-72
2023/03/14 07:23:06;;;;;;;6.28;2.00;;;9.30;99.90;;;;;;5030498;28;20048;-72
2023/03/14 07:25:34;;;;;;;7.60;2.80;;;9.30;99.90;;;;;;5044381;28;20516;-72
2023/03/14 07:28:01;;;;;;;5.72;1.63;;;;;;;;;;5053467;28;20388;-72
2023/03/14 07:30:30;;;;;;;11.20;2.00;;;;;;;;;;5051883;28;20024;-72
2023/03/14 07:33:00;;;;;;;6.45;1.85;;;;;;;;;;5062356;28;20052;-72
2023/03/14 07:35:28;;;;;;;5.10;1.75;;;;;;;;;;5044439;28;20025;-72
2023/03/14 07:37:55;;;;;;;6.53;1.85;;;;;;;;;;5054214;28;20567;-72
2023/03/14 07:40:24;;;;;;;5.70;1.63;;;;;;;;;;5039888;28;20034;-72
2023/03/14 07:42:55;;;;;;;8.38;2.30;;;;;;;;;;5046782;28;20025;-72
2023/03/14 07:45:24;;;;;;;6.25;1.85;;;;;;;;;;5044586;28;20108;-72
2023/03/14 07:47:50;;;;;;;5.35;1.60;;;;;;;;;;5042085;28;20044;-72
2023/03/14 07:50:19;;;;;;;7.75;2.13;;;;;;;;;;5046415;28;20024;-72
2023/03/14 07:52:47;;;;;;;6.32;1.73;;;;;;;;;;5049612;28;20120;-72
2023/03/14 07:55:14;;;;;;;9.30;1.60;;;;;;;;;;5034607;28;20035;-72
2023/03/14 07:57:40;;;;;;;6.47;2.22;;;;;;;;;;5048757;28;20044;-72
2023/03/14 08:00:07;;;;;;;10.82;2.15;;;;;;;;;;5037525;28;20052;-71
2023/03/14 08:02:33;;;;;;;5.38;2.25;;;;;;;;;;5033248;28;20115;-72
2023/03/14 08:04:59;;;;;;;5.70;2.25;;;;;;;;;;5050292;28;20028;-71
2023/03/14 08:07:25;;;;;;;9.77;3.05;;;;;;;;;;5042323;28;20028;-72
2023/03/14 08:09:51;;;;;;;4.15;1.52;;;;;;;;;;5047577;28;20025;-72
2023/03/14 08:12:17;;;;;;;3.78;1.30;;;;;;;;;;5044510;28;20413;-72
2023/03/14 08:14:43;;;;;;;3.28;1.10;;;;;;;;;;5043369;28;20033;-71
2023/03/14 08:17:09;;;;;;;4.68;1.30;;;;;;;;;;5042618;28;20454;-72
2023/03/14 08:19:35;;;;;;;4.85;1.30;;;;;;;;;;5029888;28;20033;-72
2023/03/14 08:22:02;;;;;;;6.97;1.20;;;;;;;;;;5044084;28;20036;-71
2023/03/14 08:24:29;;;;;;;9.38;4.45;;;;;;;;;;5045592;28;20320;-72
2023/03/14 08:26:59;;;;;;;8.10;3.30;;;;;;;;;;5045760;28;20017;-72
2023/03/14 08:29:27;;;;;;;7.55;3.50;;;;;;;;;;5042368;28;20033;-72
2023/03/14 08:31:54;;;;;;;7.32;2.45;;;;;;;;;;5033276;28;20021;-72
2023/03/14 08:34:22;;;;;;;7.25;3.50;;;;;;;;;;5038135;28;20024;-72
2023/03/14 08:36:49;;;;;;;4.38;2.00;;;;;;;;;;5040923;28;20341;-72
2023/03/14 08:39:15;;;;;;;2.75;1.40;;;;;;;;;;5048963;28;20029;-72
2023/03/14 08:41:44;;;;;;;6.53;1.73;;;;;;;;;;5047128;28;20031;-72
2023/03/14 08:44:13;;;;;;;5.13;1.20;;;;;;;;;;5049990;28;20021;-72
2023/03/14 08:46:42;;;;;;;4.93;1.20;;;;;;;;;;5042975;28;20305;-72
2023/03/14 08:49:08;;;;;;;3.78;1.33;;;;;;;;;;5045903;28;20501;-72
2023/03/14 08:51:35;;;;;;;4.20;1.27;;;;;;;;;;5044299;28;20053;-72
2023/03/14 08:54:01;;;;;;;5.32;1.63;;;;;;;;;;5049492;28;20021;-72
2023/03/14 08:56:27;;;;;;;5.90;1.48;;;;;;;;;;5037703;28;20026;-72
2023/03/14 08:58:53;;;;;;;4.22;1.20;;;;;;;;;;5029662;28;20123;-72
2023/03/14 09:01:20;;;;;;;6.38;1.38;;;;;;;;;;5032491;28;20485;-72
2023/03/14 09:03:47;;;;;;;2.47;1.30;;;;;;;;;;5042223;28;20037;-71
2023/03/14 09:06:17;;;;;;;4.35;1.30;;;;;;;;;;5039072;28;20017;-73
2023/03/14 09:08:44;;;;;;;3.58;1.08;;;10.40;99.90;;;;;;5031853;28;20085;-72
2023/03/14 09:11:15;;;;;;;2.47;1.05;;;10.40;99.90;;;;;;5040133;28;20033;-72
2023/03/14 09:13:41;;;;;;;2.88;1.00;;;10.40;99.90;;;;;;5050979;28;20316;-72
2023/03/14 09:16:14;;;;;;;3.75;1.00;;;10.30;99.90;;;;;;5056465;28;20504;-72
2023/03/14 09:18:42;;;;;;;5.00;1.07;;;10.30;99.90;;;;;;5032863;28;20045;-72
2023/03/14 09:21:09;;;;;;;4.57;1.10;;;10.20;99.90;;;;;;5037014;28;20775;-71
2023/03/14 09:23:48;;;;;;;2.95;0.90;;;10.10;99.90;;;;;;5038987;28;20037;-72
2023/03/14 09:26:18;;;;;;;4.72;1.00;;;10.10;99.90;;;;;;5038927;28;20228;-72
2023/03/14 09:28:45;;;;;;;3.03;1.17;;;10.10;99.90;;;;;;5038035;28;20025;-74
2023/03/14 09:31:20;;;;;;;5.57;1.85;;;10.10;99.90;;;;;;5042577;28;20039;-74
2023/03/14 09:33:49;;;;;;;5.07;2.38;;;10.20;99.90;;;;;;5047576;28;20293;-73
2023/03/14 09:36:28;;;;;;;3.55;1.35;;;10.30;99.90;;;;;;5040400;28;20025;-74
2023/03/14 09:38:54;;;;;;;2.67;1.30;;;10.40;99.90;;;;;;5047695;28;20037;-74
2023/03/14 09:41:45;;;;;;;4.57;3.00;;;10.40;99.90;;;;;;5042926;28;20043;-74
2023/03/14 09:44:18;;;;;;;5.68;2.92;;;10.50;99.90;;;;;;5028276;28;20458;-74
2023/03/14 09:46:58;;;;;;;4.80;2.55;;;10.50;99.90;;;;;;5046413;28;20044;-73
2023/03/14 09:49:29;;;;;;;6.63;2.85;;;10.60;99.90;;;;;;5034108;28;20036;-74
2023/03/14 09:52:02;;;;;;;4.65;2.35;;;10.70;99.90;;;;;;5045820;28;20496;-73
2023/03/14 09:54:41;;;;;;;4.25;1.80;;;10.90;99.90;;;;;;5044507;28;20056;-73
2023/03/14 09:57:18;;;;;;;3.65;1.88;;;10.80;99.90;;;;;;5047935;28;20109;-73
2023/03/14 09:59:54;;;;;;;4.88;2.38;;;10.80;99.90;;;;;;5042910;28;20069;-73
2023/03/14 10:02:37;;;;;;;4.57;2.10;;;10.70;99.90;;;;;;5031693;28;20022;-74
2023/03/14 10:05:23;;;;;;;5.03;1.70;;;10.60;99.90;;;;;;5038944;28;20044;-74
2023/03/14 10:07:53;;;;;;;4.72;2.33;;;10.60;99.90;;;;;;5035319;28;20152;-74
2023/03/14 10:10:30;;;;;;;3.90;1.75;;;10.60;99.90;;;;;;5047140;28;20242;-73
2023/03/14 10:13:21;;;;;;;5.97;2.95;;;10.70;99.90;;;;;;5047362;28;20150;-74
2023/03/14 10:16:00;;;;;;;6.85;1.90;;;11.00;99.90;;;;;;5031819;28;20437;-74
2023/03/14 10:18:40;;;;;;;2.60;1.42;;;11.20;99.90;;;;;;5032622;28;20060;-73
2023/03/14 10:21:24;;;;;;;5.53;2.40;;;11.30;99.90;;;;;;5045999;28;20476;-74
2023/03/14 10:23:53;;;;;;;2.78;1.45;;;11.30;99.90;;;;;;5043368;28;20076;-73
2023/03/14 10:26:27;;;;;;;3.95;1.48;;;11.30;99.90;;;;;;5047573;28;20021;-73
2023/03/14 10:29:10;;;;;;;4.47;2.33;;;11.20;99.90;;;;;;5044723;28;20108;-74
2023/03/14 10:32:00;;;;;;;2.17;1.17;;;11.20;99.90;;;;;;5033187;28;20525;-74
2023/03/14 10:34:35;;;;;;;3.55;1.30;;;11.20;99.90;;;;;;5039486;28;20035;-74
2023/03/14 10:37:20;;;;;;;3.28;1.15;;;11.10;99.90;;;;;;5049959;28;20021;-74
2023/03/14 10:39:48;;;;;;;3.83;1.50;;;;;;;;;;5040241;28;20034;-73
2023/03/14 10:42:21;;;;;;;4.65;1.70;;;10.90;99.90;;;;;;5043369;28;20115;-74
2023/03/14 10:44:57;;;;;;;2.55;1.60;;;10.80;99.90;;;;;;5043612;28;20036;-74
2023/03/14 10:47:28;;;;;;;4.53;1.75;;;10.80;99.90;;;;;;5047687;28;20035;-74
2023/03/14 10:49:56;;;;;;;4.70;1.85;;;10.80;99.90;;;;;;5040228;28;20029;-72
2023/03/14 10:52:29;;;;;;;5.93;4.07;;;10.80;99.90;;;;;;5042686;28;20100;-73
2023/03/14 10:55:01;;;;;;;3.00;1.88;;;10.90;99.90;;;;;;5039538;28;20037;-73
2023/03/14 10:57:37;;;;;;;4.97;1.40;;;10.90;99.90;;;;;;5038736;28;20032;-73
2023/03/14 11:00:17;;;;;;;3.10;1.40;;;11.00;99.90;;;;;;5038039;28;20425;-73
2023/03/14 11:02:51;;;;;;;1.67;1.20;;;11.10;99.90;;;;;;5037914;28;20040;-73
2023/03/14 11:05:38;;;;;;;2.53;1.20;;;11.20;99.90;;;;;;5044647;28;20054;-73
2023/03/14 11:08:26;;;;;;;5.53;1.27;;;11.20;99.90;;;;;;5043530;28;20026;-73
2023/03/14 11:11:18;;;;;;;2.15;1.35;;;11.20;99.90;;;;;;5038800;28;20067;-72
2023/03/14 11:14:11;;;;;;;1.23;0.70;;;11.40;99.90;;;;;;5039225;28;20032;-72
2023/03/14 11:16:53;;;;;;;2.73;1.00;;;11.50;99.90;;;;;;5040116;28;20037;-73
2023/03/14 11:19:31;;;;;;;2.33;0.70;;;11.60;99.90;;;;;;5037743;28;20056;-72
2023/03/14 11:22:10;;;;;;;1.50;0.90;;;11.50;99.90;;;;;;5041198;28;20028;-72
2023/03/14 11:25:05;;;;;;;1.33;0.70;;;11.50;99.90;;;;;;5041195;28;20168;-73
2023/03/14 11:28:01;;;;;;;1.65;1.10;;;11.40;99.90;;;;;;5036617;28;20025;-73
2023/03/14 11:30:44;;;;;;;1.88;1.15;;;11.30;99.90;;;;;;5033381;28;20436;-73
2023/03/14 11:33:31;;;;;;;3.13;2.28;;;;;;;;;;5041606;28;20577;-72
2023/03/14 11:36:14;;;;;;;1.67;1.52;;;11.30;99.90;;;;;;5042092;28;20115;-73
2023/03/14 11:38:54;;;;;;;1.63;1.30;;;11.10;99.90;;;;;;5041996;28;20029;-72
2023/03/14 11:41:40;;;;;;;3.15;1.35;;;11.00;99.90;;;;;;5046017;28;20025;-73
2023/03/14 11:44:16;;;;;;;1.20;1.10;;;;;;;;;;5038692;28;20033;-73
2023/03/14 11:46:57;;;;;;;1.40;1.02;;;10.90;99.90;;;;;;5035285;28;20430;-73
2023/03/14 11:50:04;;;;;;;0.80;0.80;;;10.80;99.90;;;;;;5044040;28;20059;-73
2023/03/14 11:52:52;;;;;;;2.92;0.90;;;10.90;99.90;;;;;;5012607;28;20041;-73
2023/03/14 11:55:37;;;;;;;1.58;0.77;;;10.80;99.90;;;;;;5049685;28;20072;-73
2023/03/14 11:58:39;;;;;;;2.58;0.80;;;10.80;99.90;;;;;;5043698;28;20392;-73
2023/03/14 12:01:20;;;;;;;3.03;0.63;;;10.80;99.90;;;;;;5046542;28;20037;-73
2023/03/14 12:03:56;;;;;;;1.58;0.63;;;;;;;;;;5048276;28;20037;-73
2023/03/14 12:06:46;;;;;;;2.47;0.70;;;10.80;99.90;;;;;;5028191;28;20052;-73
2023/03/14 12:09:17;;;;;;;0.95;0.60;;;10.80;99.90;;;;;;5036566;28;20084;-73
2023/03/14 12:11:57;;;;;;;2.08;1.30;;;10.80;99.90;;;;;;5035197;28;20040;-73
2023/03/14 12:14:34;;;;;;;3.15;1.00;;;10.70;99.90;;;;;;5035123;28;20028;-74
2023/03/14 12:17:12;;;;;;;1.88;1.40;;;10.70;99.90;;;;;;5043019;28;20047;-73
2023/03/14 12:19:46;;;;;;;1.25;1.08;;;10.50;99.90;;;;;;5037881;28;20506;-73
2023/03/14 12:22:25;;;;;;;2.85;0.70;;;10.50;99.90;;;;;;5049942;28;20409;-73
2023/03/14 12:25:06;;;;;;;4.30;0.60;;;10.40;99.90;;;;;;5039872;28;20647;-73
2023/03/14 12:28:02;;;;;;;2.15;0.45;;;10.30;99.90;;;;;;5039503;28;20347;-73
2023/03/14 12:30:44;;;;;;;2.47;0.50;;;10.00;99.90;;;;;;5033757;28;20102;-73
2023/03/14 12:33:18;;;;;;;0.50;0.20;;;9.80;99.90;;;;;;5035035;28;20524;-73
2023/03/14 12:36:01;;;;;;;2.88;0.30;;;;;;;;;;5039925;28;20098;-73
2023/03/14 12:38:39;;;;;;;0.73;0.30;;;;;;;;;;5046034;28;20021;-73
2023/03/14 12:41:36;;;;;;;0.98;0.17;;;9.40;99.90;;;;;;5037377;28;20517;-74
2023/03/14 12:44:35;;;;;;;2.50;0.28;;;9.40;99.90;;;;;;5037642;28;20037;-74
2023/03/14 12:47:20;;;;;;;0.73;0.20;;;9.20;99.90;;;;;;5042723;28;20052;-73
2023/03/14 12:50:08;;;;;;;0.30;0.20;;;9.10;99.90;;;;;;5033498;28;20029;-73
2023/03/14 12:53:08;;;;;;;0.63;0.30;;;9.10;99.90;;;;;;5032880;28;20033;-73
2023/03/14 12:55:51;;;;;;;0.80;0.30;;;9.00;99.90;;;;;;5040648;28;20047;-73
2023/03/14 12:58:34;;;;;;;0.75;0.40;;;8.90;99.90;;;;;;5032029;28;20155;-74
2023/03/14 13:01:11;;;;;;;0.25;0.20;;;9.20;99.90;;;;;;5044684;28;20033;-73
2023/03/14 13:03:46;;;;;;;0.25;0.25;;;9.10;99.90;;;;;;5034565;28;20409;-73
2023/03/14 13:06:13;;;;;;;0.52;0.40;;;9.10;99.90;;;;;;5041947;28;20025;-74
2023/03/14 13:08:47;;;;;;;0.20;0.20;;;;;;;;;;5040315;28;20460;-74
2023/03/14 13:11:16;;;;;;;0.25;0.20;;;;;;;;;;5038835;28;20056;-74
2023/03/14 13:13:46;;;;;;;0.77;0.20;;;;;;;;;;5039212;28;20114;-74
2023/03/14 13:16:23;;;;;;;0.30;0.30;;;;;;;;;;5034474;28;20496;-74
2023/03/14 13:18:54;;;;;;;0.40;0.40;;;;;;;;;;5034895;28;20087;-74
2023/03/14 13:21:26;;;;;;;0.45;0.30;;;;;;;;;;5029414;28;20087;-74
2023/03/14 13:23:59;;;;;;;1.30;0.38;;;;;;;;;;5048085;28;20501;-74
2023/03/14 13:26:37;;;;;;;0.32;0.25;;;7.80;99.90;;;;;;5039422;28;20075;-74
2023/03/14 13:29:18;;;;;;;0.40;0.22;;;;;;;;;;5035291;28;20021;-73
2023/03/14 13:31:48;;;;;;;0.40;0.30;;;7.40;99.90;;;;;;5040330;28;20029;-73
2023/03/14 13:34:16;;;;;;;0.20;0.20;;;;;;;;;;5045182;28;20033;-72
2023/03/14 13:36:42;;;;;;;0.40;0.30;;;7.40;99.90;;;;;;5030349;28;20515;-73
2023/03/14 13:39:17;;;;;;;0.73;0.25;;;;;;;;;;4352253;28;10000852;-75
2023/03/14 13:41:44;;;;;;;1.60;0.20;;;7.20;99.90;;;;;;5051347;28;20028;-74
2023/03/14 13:44:29;;;;;;;0.20;0.20;;;7.10;99.90;;;;;;5048882;28;20252;-75
2023/03/14 13:47:04;;;;;;;0.77;0.10;;;7.20;99.90;;;;;;5047407;28;20851;-74
2023/03/14 13:49:35;;;;;;;0.45;0.20;;;7.00;99.90;;;;;;5045166;28;20027;-74
2023/03/14 13:52:02;;;;;;;0.40;0.20;;;6.90;99.90;;;;;;5044206;28;20037;-73
2023/03/14 13:54:33;;;;;;;0.70;0.50;;;6.80;99.90;;;;;;5045233;28;20040;-74
2023/03/14 13:57:04;;;;;;;1.58;0.40;;;6.80;99.90;;;;;;5047963;28;20037;-74
2023/03/14 13:59:39;;;;;;;2.65;0.30;;;6.40;99.90;;;;;;5049420;28;20404;-74
2023/03/14 14:02:13;;;;;;;2.55;0.50;;;6.60;99.90;;;;;;5060374;28;20075;-75
2023/03/14 14:04:42;;;;;;;2.28;0.68;;;6.50;99.90;;;;;;5046638;28;20115;-75
2023/03/14 14:07:16;;;;;;;5.13;0.60;;;6.60;99.90;;;;;;5054972;28;20040;-75
2023/03/14 14:09:53;;;;;;;4.82;0.93;;;7.00;99.90;;;;;;5056235;28;20027;-75
2023/03/14 14:12:31;;;;;;;2.20;0.60;;;;;;;;;;5050618;28;20041;-76
2023/03/14 14:15:05;;;;;;;4.72;0.80;;;;;;;;;;5037827;28;20025;-76
2023/03/14 14:17:35;;;;;;;3.65;0.65;;;;;;;;;;5042578;28;20070;-76
2023/03/14 14:20:06;;;;;;;3.70;0.82;;;7.00;99.90;;;;;;5047423;28;20037;-76
2023/03/14 14:22:33;;;;;;;4.47;1.00;;;6.90;99.90;;;;;;5045801;28;20110;-75
2023/03/14 14:25:02;;;;;;;6.00;0.90;;;;;;;;;;5048305;28;20589;-75
2023/03/14 14:27:34;;;;;;;6.05;1.17;;;6.60;99.90;;;;;;5042158;28;20630;-74